createdAt,value
2022-11-24T00:01:48.283Z,78809.94
2022-11-24T00:04:17.537Z,78803.09
2022-11-24T00:06:46.420Z,78798.72
2022-11-24T00:09:15.890Z,78809.75
2022-11-24T00:11:44.746Z,78808.97
2022-11-24T00:14:14.055Z,78816.75
2022-11-24T00:16:43.176Z,78808.75
2022-11-24T00:19:17.051Z,78809.06
2022-11-24T00:21:48.499Z,78819.03
2022-11-24T00:24:17.548Z,78804.38
2022-11-24T00:26:47.353Z,78803.53
2022-11-24T00:29:16.517Z,78818.47
2022-11-24T00:31:45.773Z,78823.38
2022-11-24T00:34:16.235Z,78820.88
2022-11-24T00:36:46.439Z,78794.13
2022-11-24T00:39:16.921Z,78820.59
2022-11-24T00:41:46.305Z,78805.56
2022-11-24T00:44:16.199Z,78810.34
2022-11-24T00:46:45.465Z,78797.09
2022-11-24T00:49:15.210Z,78804.25
2022-11-24T00:51:44.689Z,78806.25
2022-11-24T00:54:13.957Z,78805.34
2022-11-24T00:56:43.336Z,78833.06
2022-11-24T00:59:12.526Z,78788.28
2022-11-24T01:01:43.529Z,78819.13
2022-11-24T01:04:13.644Z,78831.41
2022-11-24T01:06:43.568Z,78820.78
2022-11-24T01:09:13.042Z,78825.59
2022-11-24T01:12:01.803Z,78831.34
2022-11-24T01:14:32.548Z,78810.34
2022-11-24T01:17:04.488Z,78810.50
2022-11-24T01:19:33.827Z,78807.59
2022-11-24T01:22:03.117Z,78828.22
2022-11-24T01:24:32.755Z,78800.72
2022-11-24T01:27:01.932Z,78821.88
2022-11-24T01:29:31.089Z,78810.16
2022-11-24T01:32:00.190Z,78797.63
2022-11-24T01:34:29.718Z,78816.84
2022-11-24T01:36:58.729Z,78817.28
2022-11-24T01:39:28.261Z,78786.63
2022-11-24T01:41:57.230Z,78810.16
2022-11-24T01:44:29.318Z,78795.53
2022-11-24T01:47:03.680Z,78821.50
2022-11-24T01:49:46.059Z,78826.63
2022-11-24T01:52:28.895Z,78820.97
2022-11-24T01:55:02.528Z,78824.53
2022-11-24T01:57:57.103Z,78828.72
2022-11-24T02:00:26.973Z,78801.13
2022-11-24T02:02:56.127Z,78834.19
2022-11-24T02:05:38.624Z,78826.31
2022-11-24T02:08:15.615Z,78818.09
2022-11-24T02:10:46.904Z,78813.66
2022-11-24T02:13:16.940Z,78812.72
2022-11-24T02:15:45.906Z,78796.28
2022-11-24T02:18:15.430Z,78820.66
2022-11-24T02:20:44.498Z,78820.47
2022-11-24T02:23:20.606Z,78830.16
2022-11-24T02:26:14.238Z,78812.91
2022-11-24T02:28:43.549Z,78836.78
2022-11-24T02:31:12.945Z,78846.56
2022-11-24T02:33:42.647Z,78829.06
2022-11-24T02:36:11.632Z,78845.25
2022-11-24T02:38:41.033Z,78807.84
2022-11-24T02:41:15.469Z,78819.16
2022-11-24T02:43:50.860Z,78827.56
2022-11-24T02:46:20.158Z,78843.34
2022-11-24T02:48:49.265Z,78843.94
2022-11-24T02:51:18.933Z,78820.97
2022-11-24T02:53:47.898Z,78840.69
2022-11-24T02:56:17.073Z,78847.38
2022-11-24T02:58:45.945Z,78842.41
2022-11-24T03:01:15.249Z,78826.63
2022-11-24T03:03:44.362Z,78861.81
2022-11-24T03:06:13.535Z,78856.63
2022-11-24T03:08:42.857Z,78864.28
2022-11-24T03:11:12.018Z,78845.91
2022-11-24T03:13:41.328Z,78865.09
2022-11-24T03:16:11.542Z,78863.59
2022-11-24T03:18:40.929Z,78868.75
2022-11-24T03:21:10.142Z,78859.00
2022-11-24T03:23:39.338Z,78854.03
2022-11-24T03:26:10.130Z,78890.59
2022-11-24T03:28:39.297Z,78884.72
2022-11-24T03:31:09.649Z,78874.53
2022-11-24T03:33:39.276Z,78904.88
2022-11-24T03:36:09.508Z,78895.13
2022-11-24T03:38:39.018Z,78892.09
2022-11-24T03:41:10.249Z,78891.75
2022-11-24T03:43:44.041Z,78889.75
2022-11-24T03:46:14.325Z,78916.53
2022-11-24T03:48:43.315Z,78901.00
2022-11-24T03:51:12.838Z,78916.41
2022-11-24T03:53:41.907Z,78906.31
2022-11-24T03:56:11.221Z,78905.00
2022-11-24T03:58:40.376Z,78913.25
2022-11-24T04:01:09.516Z,78918.97
2022-11-24T04:03:38.361Z,78914.66
2022-11-24T04:06:07.610Z,78939.81
2022-11-24T04:08:36.515Z,78922.97
2022-11-24T04:11:05.694Z,78929.16
2022-11-24T04:13:34.541Z,78921.56
2022-11-24T04:16:08.485Z,78938.22
2022-11-24T04:18:37.641Z,78923.16
2022-11-24T04:21:06.845Z,78949.34
2022-11-24T04:23:36.263Z,78912.50
2022-11-24T04:26:05.109Z,78946.16
2022-11-24T04:28:34.402Z,78927.44
2022-11-24T04:31:07.307Z,78939.28
2022-11-24T04:33:36.452Z,78945.97
2022-11-24T04:36:05.538Z,78876.50
2022-11-24T04:39:20.064Z,78924.13
2022-11-24T04:41:23.762Z,78950.63
2022-11-24T04:43:52.798Z,78946.81
2022-11-24T04:46:22.035Z,78923.78
2022-11-24T04:48:51.605Z,78929.63
2022-11-24T04:51:20.772Z,78924.13
2022-11-24T04:53:53.085Z,78924.88
2022-11-24T04:56:23.257Z,78939.19
2022-11-24T04:58:52.132Z,78943.31
2022-11-24T05:01:21.222Z,78940.22
2022-11-24T05:03:50.298Z,78938.59
2022-11-24T05:06:20.055Z,78945.59
2022-11-24T05:08:52.183Z,78927.75
2022-11-24T05:11:21.377Z,78941.16
2022-11-24T05:13:50.263Z,78920.06
2022-11-24T05:16:19.739Z,78934.38
2022-11-24T05:18:49.016Z,78941.03
2022-11-24T05:21:18.226Z,78943.91
2022-11-24T05:23:47.258Z,78939.00
2022-11-24T05:26:16.465Z,78915.38
2022-11-24T05:28:45.477Z,78938.78
2022-11-24T05:31:14.647Z,78932.78
2022-11-24T05:33:44.509Z,78932.28
2022-11-24T05:36:33.462Z,78947.53
2022-11-24T05:39:02.737Z,78934.44
2022-11-24T05:41:31.530Z,78949.31
2022-11-24T05:44:01.251Z,78945.66
2022-11-24T05:46:30.106Z,78949.09
2022-11-24T05:48:59.201Z,78933.84
2022-11-24T05:51:29.255Z,78941.28
2022-11-24T05:53:58.241Z,78945.78
2022-11-24T05:56:27.400Z,78927.50
2022-11-24T05:58:57.271Z,78921.22
2022-11-24T06:01:26.182Z,78929.63
2022-11-24T06:03:57.749Z,78914.78
2022-11-24T06:06:26.988Z,78933.44
2022-11-24T06:08:56.196Z,78925.25
2022-11-24T06:11:25.227Z,78916.53
2022-11-24T06:13:54.250Z,78920.09
2022-11-24T06:16:23.809Z,78931.03
2022-11-24T06:18:52.904Z,78908.38
2022-11-24T06:21:22.391Z,78933.75
2022-11-24T06:23:51.305Z,78937.84
2022-11-24T06:26:20.720Z,78934.06
2022-11-24T06:28:50.392Z,78915.88
2022-11-24T06:31:19.668Z,78934.50
2022-11-24T06:33:48.708Z,78931.19
2022-11-24T06:36:18.102Z,78931.75
2022-11-24T06:38:47.574Z,78895.91
2022-11-24T06:41:17.863Z,78929.50
2022-11-24T06:43:48.629Z,78926.41
2022-11-24T06:46:17.965Z,78902.63
2022-11-24T06:48:46.811Z,78910.31
2022-11-24T06:51:15.714Z,78918.50
2022-11-24T06:53:44.503Z,78920.00
2022-11-24T06:56:16.973Z,78912.94
2022-11-24T06:58:49.557Z,78918.25
2022-11-24T07:01:22.004Z,78883.31
2022-11-24T07:03:52.991Z,78909.59
2022-11-24T07:06:23.585Z,78912.47
2022-11-24T07:08:54.060Z,78890.41
2022-11-24T07:11:25.853Z,78901.22
2022-11-24T07:13:59.907Z,78900.84
2022-11-24T07:16:30.662Z,78887.66
2022-11-24T07:19:01.315Z,78889.91
2022-11-24T07:21:31.786Z,78882.78
2022-11-24T07:24:00.639Z,78869.84
2022-11-24T07:26:29.689Z,78881.78
2022-11-24T07:28:58.741Z,78857.59
2022-11-24T07:31:27.899Z,78873.56
2022-11-24T07:33:57.109Z,78879.56
2022-11-24T07:36:26.613Z,78868.41
2022-11-24T07:38:55.656Z,78861.06
2022-11-24T07:41:24.825Z,78865.03
2022-11-24T07:43:54.146Z,78864.53
2022-11-24T07:46:23.338Z,78864.56
2022-11-24T07:48:52.419Z,78863.31
2022-11-24T07:51:21.768Z,78852.81
2022-11-24T07:53:51.060Z,78858.03
2022-11-24T07:56:20.576Z,78854.25
2022-11-24T07:58:52.869Z,78846.16
2022-11-24T08:01:22.750Z,78857.84
2022-11-24T08:03:52.337Z,78833.69
2022-11-24T08:06:26.120Z,78849.72
2022-11-24T08:08:57.580Z,78851.88
2022-11-24T08:11:27.393Z,78841.53
2022-11-24T08:13:56.603Z,78852.56
2022-11-24T08:16:26.319Z,78834.56
2022-11-24T08:18:57.041Z,78850.41
2022-11-24T08:21:26.903Z,78836.38
2022-11-24T08:23:59.265Z,78834.38
2022-11-24T08:26:29.201Z,78831.97
2022-11-24T08:29:00.036Z,78846.69
2022-11-24T08:31:34.634Z,78809.94
2022-11-24T08:34:06.615Z,78840.34
2022-11-24T08:36:36.408Z,78829.19
2022-11-24T08:39:05.887Z,78830.91
2022-11-24T08:41:35.269Z,78824.53
2022-11-24T08:44:05.543Z,78837.78
2022-11-24T08:46:34.664Z,78816.75
2022-11-24T08:49:03.765Z,78811.81
2022-11-24T08:51:33.005Z,78818.66
2022-11-24T08:54:02.945Z,78816.53
2022-11-24T08:56:34.715Z,78804.84
2022-11-24T08:59:04.356Z,78823.03
2022-11-24T09:01:34.380Z,78792.09
2022-11-24T09:04:03.543Z,78821.47
2022-11-24T09:06:32.680Z,78824.53
2022-11-24T09:09:02.432Z,78823.06
2022-11-24T09:11:32.073Z,78805.06
2022-11-24T09:14:01.183Z,78803.59
2022-11-24T09:16:30.994Z,78796.06
2022-11-24T09:19:06.086Z,78811.72
2022-11-24T09:21:38.798Z,78798.13
2022-11-24T09:24:12.214Z,78803.09
2022-11-24T09:26:46.132Z,78802.56
2022-11-24T09:29:16.932Z,78810.78
2022-11-24T09:31:46.371Z,78801.72
2022-11-24T09:34:17.058Z,78801.44
2022-11-24T09:36:46.364Z,78766.53
2022-11-24T09:39:15.390Z,78799.91
2022-11-24T09:42:04.065Z,78799.78
2022-11-24T09:44:42.830Z,78804.28
2022-11-24T09:47:56.400Z,78800.25
2022-11-24T09:50:28.428Z,78781.81
2022-11-24T09:53:34.746Z,78794.25
2022-11-24T09:56:20.799Z,78793.69
2022-11-24T09:58:55.712Z,78783.06
2022-11-24T10:01:39.520Z,78782.19
2022-11-24T10:04:41.946Z,78791.53
2022-11-24T10:07:24.263Z,78797.66
2022-11-24T10:09:56.210Z,78793.72
2022-11-24T10:12:49.223Z,78793.41
2022-11-24T10:15:27.407Z,78796.84
2022-11-24T10:18:23.264Z,78799.31
2022-11-24T10:21:19.668Z,78797.06
2022-11-24T10:24:10.350Z,78796.63
2022-11-24T10:26:42.486Z,78785.91
2022-11-24T10:29:14.991Z,78798.75
2022-11-24T10:31:47.132Z,78782.06
2022-11-24T10:34:24.541Z,78794.72
2022-11-24T10:37:27.075Z,78799.44
2022-11-24T10:40:17.241Z,78796.50
2022-11-24T10:42:56.488Z,78796.94
2022-11-24T10:45:27.922Z,78789.34
2022-11-24T10:47:59.860Z,78798.66
2022-11-24T10:50:34.160Z,78800.72
2022-11-24T10:53:21.717Z,78806.41
2022-11-24T10:56:05.863Z,78799.69
2022-11-24T10:58:39.999Z,78804.38
2022-11-24T11:01:15.350Z,78799.91
2022-11-24T11:04:02.677Z,78776.28
2022-11-24T11:06:33.715Z,78790.06
2022-11-24T11:09:09.459Z,78805.97
2022-11-24T11:11:40.859Z,78803.78
2022-11-24T11:14:14.141Z,78794.13
2022-11-24T11:16:53.468Z,78789.84
2022-11-24T11:19:50.020Z,78803.50
2022-11-24T11:22:25.255Z,78802.47
2022-11-24T11:25:12.882Z,78794.31
2022-11-24T11:27:42.812Z,78794.56
2022-11-24T11:36:18.029Z,78780.88
2022-11-24T11:38:48.467Z,78793.22
2022-11-24T11:41:31.634Z,78772.06
2022-11-24T11:44:27.616Z,78789.03
2022-11-24T11:47:00.707Z,78797.13
2022-11-24T11:49:30.116Z,78778.06
2022-11-24T11:52:36.240Z,78790.53
2022-11-24T11:55:23.720Z,78794.50
2022-11-24T11:58:09.293Z,78794.22
2022-11-24T12:00:46.757Z,78788.28
2022-11-24T12:03:34.416Z,78798.81
2022-11-24T12:06:34.848Z,78791.13
2022-11-24T12:09:35.225Z,78802.78
2022-11-24T12:12:26.801Z,78804.56
2022-11-24T12:15:22.378Z,78813.75
2022-11-24T12:18:33.063Z,78817.13
2022-11-24T12:21:28.811Z,78813.03
2022-11-24T12:24:21.049Z,78793.41
2022-11-24T12:27:05.503Z,78787.53
2022-11-24T12:29:59.254Z,78815.25
2022-11-24T12:32:58.799Z,78806.47
2022-11-24T12:35:37.214Z,78821.66
2022-11-24T12:38:15.010Z,78822.97
2022-11-24T12:41:33.787Z,78823.06
2022-11-24T12:43:58.747Z,78826.97
2022-11-24T12:46:58.877Z,78835.13
2022-11-24T12:49:46.042Z,78840.50
2022-11-24T12:52:45.370Z,78841.72
2022-11-24T12:55:25.000Z,78845.84
2022-11-24T12:58:25.537Z,78848.84
2022-11-24T13:01:47.824Z,78841.25
2022-11-24T13:04:32.115Z,78838.75
2022-11-24T13:17:58.387Z,78842.53
2022-11-24T13:30:35.883Z,78870.72
2022-11-24T13:36:48.650Z,78883.97
2022-11-24T13:42:44.056Z,78886.25
2022-11-24T13:58:44.134Z,78881.84
2022-11-24T14:04:40.703Z,78893.03
2022-11-24T14:10:39.154Z,78906.06
2022-11-24T14:16:37.730Z,78897.78
2022-11-24T14:27:51.825Z,78925.41
2022-11-24T14:36:31.376Z,78911.53
2022-11-24T14:42:30.524Z,78925.72
2022-11-24T14:45:04.997Z,78911.16
2022-11-24T14:47:40.245Z,78878.69
2022-11-24T14:50:27.851Z,78912.31
2022-11-24T14:52:59.163Z,78896.31
2022-11-24T14:55:40.232Z,78921.69
2022-11-24T14:58:41.834Z,78906.94
2022-11-24T15:01:29.350Z,78930.28
2022-11-24T15:04:32.862Z,78930.16
2022-11-24T15:07:30.272Z,78929.91
2022-11-24T15:10:05.116Z,78928.84
2022-11-24T15:12:55.000Z,78911.84
2022-11-24T15:15:37.276Z,78914.50
2022-11-24T15:18:08.521Z,78921.56
2022-11-24T15:20:48.012Z,78928.22
2022-11-24T15:23:23.512Z,78934.88
2022-11-24T15:26:18.956Z,78931.56
2022-11-24T15:28:48.362Z,78908.59
2022-11-24T15:31:17.311Z,78881.66
2022-11-24T15:33:46.401Z,78944.31
2022-11-24T15:36:17.819Z,78941.97
2022-11-24T15:38:47.003Z,78923.34
2022-11-24T15:41:27.129Z,78934.81
2022-11-24T15:44:00.137Z,78936.47
2022-11-24T15:46:31.750Z,78936.28
2022-11-24T15:49:01.092Z,78944.63
2022-11-24T15:51:29.964Z,78941.34
2022-11-24T15:54:01.349Z,78938.88
2022-11-24T15:56:35.451Z,78932.44
2022-11-24T15:59:05.672Z,78950.59
2022-11-24T16:01:35.459Z,78957.09
2022-11-24T16:04:04.828Z,78948.59
2022-11-24T16:06:33.969Z,78960.81
2022-11-24T16:09:03.037Z,78942.78
2022-11-24T16:11:32.151Z,78943.56
2022-11-24T16:14:01.173Z,78934.31
2022-11-24T16:16:30.529Z,78958.72
2022-11-24T16:18:59.565Z,78937.06
2022-11-24T16:21:28.542Z,78919.81
2022-11-24T16:23:57.806Z,78949.94
2022-11-24T16:26:26.694Z,78967.72
2022-11-24T16:28:56.061Z,78942.06
2022-11-24T16:31:25.313Z,78952.59
2022-11-24T16:33:54.398Z,78983.31
2022-11-24T16:36:24.086Z,78984.38
2022-11-24T16:38:53.526Z,78963.53
2022-11-24T16:41:22.807Z,78979.25
2022-11-24T16:43:51.810Z,78962.84
2022-11-24T16:46:23.240Z,78977.97
2022-11-24T16:48:56.056Z,78989.78
2022-11-24T16:51:31.398Z,78984.44
2022-11-24T16:54:05.556Z,78960.47
2022-11-24T16:56:35.420Z,78990.03
2022-11-24T16:59:04.943Z,78992.88
2022-11-24T17:01:34.829Z,78986.38
2022-11-24T17:04:06.022Z,78965.84
2022-11-24T17:06:38.864Z,78970.31
2022-11-24T17:09:07.813Z,78973.44
2022-11-24T17:11:36.857Z,78954.03
2022-11-24T17:14:05.911Z,78984.75
2022-11-24T17:16:35.841Z,78950.44
2022-11-24T17:19:06.601Z,78979.94
2022-11-24T17:21:36.459Z,78976.41
2022-11-24T17:24:06.433Z,78979.16
2022-11-24T17:26:36.501Z,78976.34
2022-11-24T17:29:05.464Z,78959.16
2022-11-24T17:31:38.352Z,78990.97
2022-11-24T17:34:09.549Z,78992.31
2022-11-24T17:36:39.090Z,78981.06
2022-11-24T17:39:08.697Z,78984.50
2022-11-24T17:41:38.710Z,78971.72
2022-11-24T17:44:10.839Z,78992.34
2022-11-24T17:46:40.132Z,78985.94
2022-11-24T17:49:09.416Z,78997.91
2022-11-24T17:51:38.387Z,78972.84
2022-11-24T17:54:31.203Z,78988.00
2022-11-24T17:56:56.569Z,78962.50
2022-11-24T17:59:25.648Z,78977.75
2022-11-24T18:01:56.240Z,78985.13
2022-11-24T18:04:25.203Z,78992.22
2022-11-24T18:06:54.300Z,78979.03
2022-11-24T18:09:23.307Z,78997.50
2022-11-24T18:11:53.193Z,78991.56
2022-11-24T18:14:22.124Z,78992.47
2022-11-24T18:16:51.460Z,78999.94
2022-11-24T18:19:20.627Z,79000.81
2022-11-24T18:21:49.709Z,79008.31
2022-11-24T18:24:22.709Z,79001.13
2022-11-24T18:26:53.223Z,78983.47
2022-11-24T18:29:23.195Z,78989.75
2022-11-24T18:31:52.229Z,78989.09
2022-11-24T18:34:21.278Z,79003.69
2022-11-24T18:36:53.082Z,79007.00
2022-11-24T18:39:22.673Z,79009.63
2022-11-24T18:41:51.601Z,78994.50
2022-11-24T18:44:20.854Z,78981.41
2022-11-24T18:46:50.574Z,79011.22
2022-11-24T18:49:19.685Z,78996.72
2022-11-24T18:51:48.482Z,78993.41
2022-11-24T18:54:17.588Z,79009.44
2022-11-24T18:56:47.138Z,78966.50
2022-11-24T18:59:16.716Z,78997.34
2022-11-24T19:01:47.265Z,78966.47
2022-11-24T19:04:16.496Z,78986.28
2022-11-24T19:06:45.736Z,78992.88
2022-11-24T19:09:19.390Z,79003.97
2022-11-24T19:11:49.088Z,78984.81
2022-11-24T19:14:20.175Z,78967.56
2022-11-24T19:16:49.362Z,78986.03
2022-11-24T19:19:18.280Z,78956.81
2022-11-24T19:21:47.590Z,78997.69
2022-11-24T19:24:16.472Z,79006.97
2022-11-24T19:26:46.298Z,78993.09
2022-11-24T19:29:15.400Z,78977.66
2022-11-24T19:31:44.846Z,78992.28
2022-11-24T19:34:13.910Z,79001.66
2022-11-24T19:36:44.406Z,79012.25
2022-11-24T19:39:16.373Z,79005.13
2022-11-24T19:41:45.670Z,79010.53
2022-11-24T19:44:15.307Z,79001.31
2022-11-24T19:46:44.420Z,78996.38
2022-11-24T19:49:13.833Z,78977.31
2022-11-24T19:51:42.993Z,78989.75
2022-11-24T19:54:15.749Z,79008.88
2022-11-24T19:56:45.014Z,78959.97
2022-11-24T19:59:16.242Z,78990.91
2022-11-24T20:01:45.402Z,78986.25
2022-11-24T20:04:16.511Z,78997.97
2022-11-24T20:06:48.390Z,78945.19
2022-11-24T20:09:19.471Z,78997.91
2022-11-24T20:11:49.740Z,78981.44
2022-11-24T20:14:20.516Z,79000.84
2022-11-24T20:16:49.692Z,78996.97
2022-11-24T20:19:19.842Z,78998.97
2022-11-24T20:21:50.960Z,78989.81
2022-11-24T20:24:23.131Z,79002.88
2022-11-24T20:26:57.604Z,79002.19
2022-11-24T20:29:29.215Z,78976.34
2022-11-24T20:31:59.723Z,79010.69
2022-11-24T20:34:29.427Z,78996.81
2022-11-24T20:36:58.288Z,78987.91
2022-11-24T20:39:29.548Z,78993.53
2022-11-24T20:41:59.551Z,79009.78
2022-11-24T20:44:31.139Z,78992.50
2022-11-24T20:47:01.545Z,79023.13
2022-11-24T20:49:30.731Z,79020.22
2022-11-24T20:52:00.496Z,79000.00
2022-11-24T20:54:29.448Z,79005.53
2022-11-24T20:56:58.424Z,79007.69
2022-11-24T20:59:27.442Z,78995.91
2022-11-24T21:01:56.741Z,79005.97
2022-11-24T21:04:27.599Z,79009.34
2022-11-24T21:06:57.048Z,79011.63
2022-11-24T21:09:28.226Z,78982.25
2022-11-24T21:11:57.597Z,78978.59
2022-11-24T21:14:30.033Z,78986.00
2022-11-24T21:17:01.710Z,78967.09
2022-11-24T21:19:30.734Z,78993.38
2022-11-24T21:21:59.813Z,78994.00
2022-11-24T21:24:32.046Z,78997.94
2022-11-24T21:27:01.131Z,78996.00
2022-11-24T21:29:29.958Z,78987.44
2022-11-24T21:31:59.700Z,78994.03
2022-11-24T21:34:28.754Z,79000.72
2022-11-24T21:36:57.857Z,78998.16
2022-11-24T21:39:26.809Z,78975.06
2022-11-24T21:41:56.047Z,78989.66
2022-11-24T21:44:24.938Z,78969.09
2022-11-24T21:46:56.111Z,78980.31
2022-11-24T21:49:25.355Z,78962.44
2022-11-24T21:51:56.506Z,78950.50
2022-11-24T21:54:25.698Z,78979.50
2022-11-24T21:56:55.340Z,78964.75
2022-11-24T21:59:24.520Z,78966.66
2022-11-24T22:01:53.539Z,78982.69
2022-11-24T22:04:22.792Z,78970.13
2022-11-24T22:06:53.679Z,78980.09
2022-11-24T22:09:23.020Z,78963.09
2022-11-24T22:11:53.688Z,78966.97
2022-11-24T22:14:23.419Z,78962.81
2022-11-24T22:16:52.744Z,78969.53
2022-11-24T22:19:21.843Z,78965.63
2022-11-24T22:21:51.288Z,78969.28
2022-11-24T22:24:25.785Z,78979.19
2022-11-24T22:26:56.244Z,78952.78
2022-11-24T22:29:25.348Z,78952.19
2022-11-24T22:31:54.586Z,78964.75
2022-11-24T22:34:23.649Z,78977.28
2022-11-24T22:36:52.734Z,78937.13
2022-11-24T22:39:21.587Z,78973.84
2022-11-24T22:41:50.872Z,78980.50
2022-11-24T22:44:19.778Z,78982.44
2022-11-24T22:46:49.575Z,78959.91
2022-11-24T22:49:18.574Z,78956.16
2022-11-24T22:51:47.707Z,78953.41
2022-11-24T22:54:16.647Z,78983.53
2022-11-24T22:56:45.941Z,78957.00
2022-11-24T22:59:14.870Z,78967.97
2022-11-24T23:01:44.082Z,78977.84
2022-11-24T23:04:13.058Z,78970.47
2022-11-24T23:06:42.239Z,78961.81
2022-11-24T23:09:13.380Z,78980.03
2022-11-24T23:11:42.639Z,78962.78
2022-11-24T23:14:16.829Z,78968.75
2022-11-24T23:16:47.559Z,78970.34
2022-11-24T23:19:16.451Z,78979.84
2022-11-24T23:21:45.621Z,78959.56
2022-11-24T23:24:14.588Z,78978.97
2022-11-24T23:26:44.219Z,78973.91
2022-11-24T23:29:13.271Z,78985.66
2022-11-24T23:31:42.457Z,78979.22
2022-11-24T23:34:11.577Z,78970.03
2022-11-24T23:36:41.403Z,78975.28
2022-11-24T23:39:13.572Z,78970.19
2022-11-24T23:41:42.993Z,78983.78
2022-11-24T23:44:12.237Z,78969.31
2022-11-24T23:46:41.436Z,78972.06
2022-11-24T23:49:10.523Z,78977.78
2022-11-24T23:51:43.117Z,78987.69
2022-11-24T23:54:12.472Z,78950.72
2022-11-24T23:56:41.442Z,78974.66
2022-11-24T23:59:12.701Z,78961.03
